Time;durP1;ratioP1;P1;durP2;ratioP2;P2;SDS_P1;SDS_P2;PMS_P1;PMS_P2;Temp;Humidity;BMP_temperature;BMP_pressure;BME280_temperature;BME280_humidity;BME280_pressure;Samples;Min_cycle;Max_cycle;Signal;HPM_P1;HPM_P2
2022/03/07 00:00:36;;;;;;;0.70;0.70;;;;;;;;;;4952382;29;20233;-64
2022/03/07 00:03:04;;;;;;;1.13;1.07;;;;;;;;;;4937884;29;20222;-64
2022/03/07 00:05:31;;;;;;;0.90;0.83;;;;;;;;;;4935096;29;20216;-64
2022/03/07 00:07:58;;;;;;;0.97;0.97;;;;;;;;;;4932666;29;20208;-64
2022/03/07 00:10:25;;;;;;;0.50;0.43;;;;;;;;;;4932831;29;20254;-64
2022/03/07 00:12:54;;;;;;;1.40;1.40;;;;;;;;;;4947272;29;20233;-66
2022/03/07 00:15:21;;;;;;;0.30;0.30;;;;;;;;;;4947046;28;20217;-64
2022/03/07 00:17:48;;;;;;;0.50;0.50;;;;;;;;;;4936244;29;20233;-64
2022/03/07 00:20:15;;;;;;;0.43;0.30;;;;;;;;;;4943289;29;20899;-64
2022/03/07 00:22:42;;;;;;;0.10;0.10;;;;;;;;;;4933551;29;20219;-64
2022/03/07 00:25:09;;;;;;;0.33;0.33;;;;;;;;;;4940206;29;20598;-64
2022/03/07 00:27:37;;;;;;;4.90;0.97;;;;;;;;;;4942519;29;20241;-64
2022/03/07 00:30:06;;;;;;;0.83;0.50;;;;;;;;;;4951854;29;20550;-64
2022/03/07 00:32:33;;;;;;;0.40;0.40;;;;;;;;;;4949952;29;20203;-64
2022/03/07 00:35:00;;;;;;;0.50;0.50;;;;;;;;;;4948703;29;20621;-64
2022/03/07 00:37:27;;;;;;;0.30;0.30;;;;;;;;;;4950876;28;20217;-64
2022/03/07 00:39:54;;;;;;;0.50;0.50;;;;;;;;;;4933210;29;20204;-64
2022/03/07 00:42:21;;;;;;;0.60;0.57;;;;;;;;;;4942947;29;20211;-64
2022/03/07 00:44:48;;;;;;;0.40;0.37;;;;;;;;;;4951126;29;20251;-63
2022/03/07 00:47:17;;;;;;;0.50;0.50;;;;;;;;;;4934630;29;20211;-64
2022/03/07 00:49:44;;;;;;;1.23;0.63;;;;;;;;;;4950629;29;20218;-64
2022/03/07 00:52:11;;;;;;;0.93;0.60;;;;;;;;;;4947895;29;20455;-64
2022/03/07 00:54:38;;;;;;;0.00;0.00;;;;;;;;;;4931834;29;20328;-64
2022/03/07 00:57:05;;;;;;;0.17;0.17;;;;;;;;;;4933854;29;20204;-64
2022/03/07 00:59:33;;;;;;;0.40;0.20;;;;;;;;;;4932360;29;20629;-64
2022/03/07 01:02:00;;;;;;;0.60;0.37;;;;;;;;;;4936108;29;20496;-64
2022/03/07 01:04:28;;;;;;;0.30;0.10;;;;;;;;;;4941899;29;20207;-64
2022/03/07 01:06:55;;;;;;;0.10;0.10;;;;;;;;;;4941292;29;20242;-64
2022/03/07 01:09:22;;;;;;;0.00;0.00;;;;;;;;;;4949818;29;20217;-64
2022/03/07 01:11:49;;;;;;;0.80;0.53;;;;;;;;;;4948686;29;20575;-64
2022/03/07 01:14:17;;;;;;;0.33;0.20;;;;;;;;;;4943505;29;20218;-64
2022/03/07 01:16:44;;;;;;;0.40;0.23;;;;;;;;;;4934643;29;20374;-64
2022/03/07 01:19:11;;;;;;;1.20;0.30;;;;;;;;;;4931052;29;20229;-64
2022/03/07 01:21:40;;;;;;;0.10;0.10;;;;;;;;;;4931279;29;20211;-64
2022/03/07 01:24:07;;;;;;;0.30;0.30;;;;;;;;;;4941381;29;20206;-64
2022/03/07 01:26:35;;;;;;;0.40;0.40;;;;;;;;;;4945308;29;20705;-64
2022/03/07 01:29:02;;;;;;;0.13;0.13;;;;;;;;;;4937185;29;20299;-64
2022/03/07 01:31:29;;;;;;;0.00;0.00;;;;;;;;;;4939297;29;20652;-64
2022/03/07 01:33:56;;;;;;;0.17;0.17;;;;;;;;;;4940230;29;20216;-64
2022/03/07 01:36:23;;;;;;;0.00;0.00;;;;;;;;;;4936757;29;20205;-64
2022/03/07 01:38:52;;;;;;;0.40;0.30;;;;;;;;;;4946029;29;20325;-64
2022/03/07 01:41:19;;;;;;;0.73;0.73;;;;;;;;;;4941106;29;20556;-64
2022/03/07 01:43:46;;;;;;;0.10;0.10;;;;;;;;;;4947965;28;20222;-64
2022/03/07 01:46:13;;;;;;;0.10;0.10;;;;;;;;;;4932141;29;20213;-64
2022/03/07 01:48:40;;;;;;;0.00;0.00;;;;;;;;;;4943917;28;20210;-64
2022/03/07 01:51:10;;;;;;;0.10;0.10;;;;;;;;;;4941977;28;20230;-64
2022/03/07 01:53:38;;;;;;;0.00;0.00;;;;;;;;;;4949031;29;20853;-64
2022/03/07 01:56:07;;;;;;;1.30;0.73;;;;;;;;;;4947503;29;20211;-64
2022/03/07 01:58:34;;;;;;;0.50;0.50;;;;;;;;;;4944447;29;20208;-64
2022/03/07 02:01:02;;;;;;;0.30;0.30;;;;;;;;;;4949284;29;20288;-64
2022/03/07 02:03:29;;;;;;;0.57;0.57;;;;;;;;;;4949550;29;20639;-64
2022/03/07 02:05:56;;;;;;;0.10;0.10;;;;;;;;;;4933948;29;20236;-64
2022/03/07 02:08:23;;;;;;;0.87;0.70;;;;;;;;;;4937005;29;20209;-64
2022/03/07 02:10:50;;;;;;;0.40;0.40;;;;;;;;;;4947911;29;20244;-64
2022/03/07 02:13:20;;;;;;;0.47;0.47;;;;;;;;;;4949056;29;20477;-64
2022/03/07 02:15:53;;;;;;;0.13;0.13;;;;;;;;;;4947642;29;20699;-64
2022/03/07 02:18:21;;;;;;;0.20;0.10;;;;;;;;;;4934816;29;20202;-64
2022/03/07 02:20:48;;;;;;;0.40;0.20;;;;;;;;;;4930250;29;20269;-64
2022/03/07 02:23:17;;;;;;;0.20;0.20;;;;;;;;;;4947195;29;20759;-64
2022/03/07 02:25:44;;;;;;;0.23;0.23;;;;;;;;;;4941045;28;20237;-64
2022/03/07 02:28:11;;;;;;;0.20;0.20;;;;;;;;;;4929893;29;20272;-64
2022/03/07 02:30:38;;;;;;;0.50;0.50;;;;;;;;;;4934897;29;20237;-64
2022/03/07 02:33:05;;;;;;;1.50;0.83;;;;;;;;;;4947726;29;20204;-64
2022/03/07 02:35:32;;;;;;;0.50;0.50;;;;;;;;;;4945604;29;20670;-64
2022/03/07 02:37:59;;;;;;;0.50;0.50;;;;;;;;;;4947444;29;20210;-63
2022/03/07 02:40:27;;;;;;;0.20;0.20;;;;;;;;;;4940758;29;20209;-64
2022/03/07 02:42:54;;;;;;;0.93;0.40;;;;;;;;;;4948526;29;20244;-64
2022/03/07 02:45:21;;;;;;;3.90;1.20;;;;;;;;;;4947553;29;20216;-64
2022/03/07 02:47:48;;;;;;;0.50;0.47;;;;;;;;;;4937418;29;20219;-63
2022/03/07 02:50:15;;;;;;;0.93;0.93;;;;;;;;;;4942354;29;20275;-63
2022/03/07 02:52:42;;;;;;;0.50;0.50;;;;;;;;;;4948741;29;20217;-63
2022/03/07 02:55:10;;;;;;;0.17;0.17;;;;;;;;;;4948317;29;20687;-63
2022/03/07 02:57:39;;;;;;;0.60;0.43;;;;;;;;;;4947615;28;20325;-63
2022/03/07 03:00:07;;;;;;;0.80;0.50;;;;;;;;;;4940725;29;20226;-63
2022/03/07 03:02:34;;;;;;;2.30;0.80;;;;;;;;;;4937304;28;20293;-63
2022/03/07 03:05:01;;;;;;;1.50;1.10;;;;;;;;;;4952560;29;20633;-63
2022/03/07 03:07:28;;;;;;;0.80;0.47;;;;;;;;;;4939413;29;20201;-64
2022/03/07 03:09:55;;;;;;;0.40;0.40;;;;;;;;;;4942689;29;20218;-63
2022/03/07 03:12:24;;;;;;;1.27;1.20;;;;;;;;;;4935681;29;20230;-64
2022/03/07 03:14:52;;;;;;;0.90;0.87;;;;;;;;;;4947447;29;20248;-63
2022/03/07 03:17:19;;;;;;;0.90;0.60;;;;;;;;;;4945265;29;20205;-63
2022/03/07 03:19:46;;;;;;;0.87;0.87;;;;;;;;;;4941678;29;20218;-63
2022/03/07 03:22:13;;;;;;;2.03;0.97;;;;;;;;;;4943623;29;20707;-63
2022/03/07 03:24:40;;;;;;;0.80;0.80;;;;;;;;;;4933572;29;20651;-63
2022/03/07 03:27:07;;;;;;;0.57;0.57;;;;;;;;;;4945152;29;20300;-64
2022/03/07 03:29:34;;;;;;;0.50;0.50;;;;;;;;;;4944640;29;20216;-63
2022/03/07 03:32:03;;;;;;;1.33;0.90;;;;;;;;;;4937789;29;20233;-63
2022/03/07 03:34:30;;;;;;;1.90;0.77;;;;;;;;;;4933992;29;20218;-64
2022/03/07 03:36:57;;;;;;;1.57;1.27;;;;;;;;;;4935822;29;20565;-63
2022/03/07 03:39:24;;;;;;;1.70;1.33;;;;;;;;;;4934782;29;20214;-64
2022/03/07 03:41:51;;;;;;;0.87;0.80;;;;;;;;;;4938714;29;20616;-63
2022/03/07 03:44:18;;;;;;;2.00;1.60;;;;;;;;;;4933663;29;20747;-64
2022/03/07 03:46:45;;;;;;;0.50;0.50;;;;;;;;;;4934418;29;20210;-63
2022/03/07 03:49:14;;;;;;;1.10;0.50;;;;;;;;;;4934532;29;20206;-63
2022/03/07 03:51:41;;;;;;;0.70;0.57;;;;;;;;;;4937711;29;20791;-63
2022/03/07 03:54:08;;;;;;;2.43;0.80;;;;;;;;;;4952106;29;20731;-64
2022/03/07 03:56:35;;;;;;;1.37;1.07;;;;;;;;;;4952206;29;20209;-63
2022/03/07 03:59:02;;;;;;;0.57;0.57;;;;;;;;;;4950858;29;20668;-64
2022/03/07 04:01:29;;;;;;;1.80;1.27;;;;;;;;;;4947674;29;20701;-63
2022/03/07 04:03:56;;;;;;;0.90;0.90;;;;;;;;;;4947352;28;20222;-64
2022/03/07 04:06:24;;;;;;;1.80;1.37;;;;;;;;;;4949385;29;20217;-63
2022/03/07 04:08:51;;;;;;;1.13;1.13;;;;;;;;;;4933651;29;20228;-63
2022/03/07 04:11:20;;;;;;;2.93;1.77;;;;;;;;;;4946553;28;20719;-64
2022/03/07 04:13:48;;;;;;;0.83;0.80;;;;;;;;;;4951877;29;20243;-66
2022/03/07 04:16:16;;;;;;;1.30;0.90;;;;;;;;;;4950218;29;20624;-64
2022/03/07 04:18:43;;;;;;;2.80;1.33;;;;;;;;;;4951426;28;20201;-64
2022/03/07 04:21:10;;;;;;;2.47;1.27;;;;;;;;;;4947994;29;20769;-64
2022/03/07 04:23:39;;;;;;;1.07;0.90;;;;;;;;;;4950476;29;20214;-64
2022/03/07 04:26:06;;;;;;;0.90;0.90;;;;;;;;;;4935465;29;20273;-64
2022/03/07 04:28:33;;;;;;;1.40;1.27;;;;;;;;;;4947948;29;20241;-64
2022/03/07 04:31:00;;;;;;;2.30;1.80;;;;;;;;;;4943031;29;20408;-64
2022/03/07 04:33:27;;;;;;;2.43;1.03;;;;;;;;;;4936413;29;20705;-64
2022/03/07 04:35:54;;;;;;;2.40;2.20;;;;;;;;;;4939736;29;20329;-64
2022/03/07 04:38:24;;;;;;;1.10;0.93;;;;;;;;;;4949318;29;20216;-64
2022/03/07 04:40:52;;;;;;;2.00;1.13;;;;;;;;;;4933805;29;20716;-64
2022/03/07 04:43:20;;;;;;;2.03;1.83;;;;;;;;;;4945198;29;20223;-64
2022/03/07 04:45:47;;;;;;;2.93;1.70;;;;;;;;;;4933620;29;20222;-63
2022/03/07 04:48:14;;;;;;;2.07;1.83;;;;;;;;;;4935487;29;20209;-64
2022/03/07 04:50:41;;;;;;;1.67;1.57;;;;;;;;;;4949759;28;20307;-64
2022/03/07 04:53:08;;;;;;;1.13;1.13;;;;;;;;;;4948170;29;20295;-64
2022/03/07 04:55:35;;;;;;;1.43;1.10;;;;;;;;;;4950458;29;20216;-64
2022/03/07 04:58:04;;;;;;;2.07;1.30;;;;;;;;;;4950598;29;20219;-64
2022/03/07 05:00:32;;;;;;;1.57;1.20;;;;;;;;;;4941630;29;20736;-64
2022/03/07 05:02:59;;;;;;;1.20;1.20;;;;;;;;;;4936512;29;20212;-64
2022/03/07 05:05:26;;;;;;;2.47;1.57;;;;;;;;;;4933538;29;20208;-64
2022/03/07 05:07:54;;;;;;;1.30;1.30;;;;;;;;;;4942351;29;20278;-63
2022/03/07 05:10:22;;;;;;;2.17;1.60;;;;;;;;;;4950746;29;20263;-64
2022/03/07 05:12:49;;;;;;;1.57;1.47;;;;;;;;;;4948839;29;20806;-64
2022/03/07 05:15:18;;;;;;;1.60;1.47;;;;;;;;;;4931867;29;20208;-64
2022/03/07 05:17:45;;;;;;;3.80;1.93;;;;;;;;;;4932087;29;20219;-63
2022/03/07 05:20:13;;;;;;;3.33;1.53;;;;;;;;;;4950790;29;20212;-66
2022/03/07 05:22:40;;;;;;;1.87;1.70;;;;;;;;;;4949843;28;20636;-64
2022/03/07 05:25:08;;;;;;;4.20;2.03;;;;;;;;;;4935517;29;20235;-65
2022/03/07 05:27:35;;;;;;;4.50;2.83;;;;;;;;;;4936740;29;20292;-65
2022/03/07 05:30:02;;;;;;;1.83;1.73;;;;;;;;;;4931918;29;20321;-65
2022/03/07 05:32:31;;;;;;;3.63;2.53;;;;;;;;;;4931716;29;20725;-65
2022/03/07 05:34:58;;;;;;;2.77;2.27;;;;;;;;;;4936896;29;20362;-64
2022/03/07 05:37:25;;;;;;;1.90;1.77;;;;;;;;;;4932928;28;20304;-65
2022/03/07 05:39:52;;;;;;;3.87;1.60;;;;;;;;;;4942492;28;20290;-65
2022/03/07 05:42:20;;;;;;;2.50;1.93;;;;;;;;;;4951023;29;20217;-65
2022/03/07 05:44:47;;;;;;;2.30;1.67;;;;;;;;;;4943685;29;20216;-65
2022/03/07 05:47:14;;;;;;;7.13;2.30;;;;;;;;;;4931664;29;20216;-65
2022/03/07 05:49:43;;;;;;;6.17;2.53;;;;;;;;;;4931519;29;20207;-64
2022/03/07 05:52:10;;;;;;;2.83;2.13;;;;;;;;;;4932708;29;20278;-65
2022/03/07 05:54:37;;;;;;;3.53;1.37;;;;;;;;;;4935800;29;20205;-65
2022/03/07 05:57:04;;;;;;;1.83;1.60;;;;;;;;;;4945073;29;20211;-65
2022/03/07 05:59:31;;;;;;;1.63;1.50;;;;;;;;;;4934353;29;20232;-64
2022/03/07 06:01:58;;;;;;;1.97;1.87;;;;;;;;;;4943452;29;20270;-64
2022/03/07 06:04:26;;;;;;;2.37;1.77;;;;;;;;;;4934150;28;20698;-64
2022/03/07 06:06:54;;;;;;;2.03;1.87;;;;;;;;;;4948521;29;20235;-64
2022/03/07 06:09:21;;;;;;;1.47;1.37;;;;;;;;;;4949083;29;20713;-64
2022/03/07 06:11:48;;;;;;;4.37;2.37;;;;;;;;;;4947043;28;20231;-64
2022/03/07 06:14:15;;;;;;;3.60;1.33;;;;;;;;;;4948691;29;20271;-64
2022/03/07 06:16:45;;;;;;;0.00;0.00;;;;;;;;;;4944928;29;20214;-62
2022/03/07 06:19:15;;;;;;;0.63;0.63;;;;;;;;;;4948188;28;20220;-65
2022/03/07 06:21:42;;;;;;;1.10;1.00;;;;;;;;;;4934554;29;20209;-66
2022/03/07 06:24:11;;;;;;;1.07;1.03;;;;;;;;;;4935664;29;20216;-65
2022/03/07 06:26:38;;;;;;;1.83;1.67;;;;;;;;;;4935922;29;20319;-65
2022/03/07 06:29:05;;;;;;;2.60;1.20;;;;;;;;;;4938356;29;20248;-65
2022/03/07 06:31:33;;;;;;;2.70;2.13;;;;;;;;;;4949213;29;20264;-65
2022/03/07 06:34:00;;;;;;;1.63;1.63;;;;;;;;;;4949087;29;20766;-65
2022/03/07 06:36:27;;;;;;;0.70;0.70;;;;;;;;;;4937068;29;20255;-65
2022/03/07 06:38:54;;;;;;;4.00;2.10;;;;;;;;;;4943906;29;20213;-65
2022/03/07 06:41:22;;;;;;;1.27;0.97;;;;;;;;;;4941368;29;20217;-64
2022/03/07 06:43:49;;;;;;;2.10;1.37;;;;;;;;;;4948921;29;20214;-65
2022/03/07 06:46:17;;;;;;;7.27;2.57;;;;;;;;;;4939855;29;20229;-64
2022/03/07 06:48:44;;;;;;;0.70;0.70;;;;;;;;;;4930887;29;20218;-65
2022/03/07 06:51:11;;;;;;;0.63;0.63;;;;;;;;;;4928645;29;20281;-65
2022/03/07 06:53:38;;;;;;;0.83;0.83;;;;;;;;;;4929773;29;20246;-64
2022/03/07 06:56:05;;;;;;;2.90;2.47;;;;;;;;;;4930118;29;20219;-65
2022/03/07 06:58:33;;;;;;;1.50;1.27;;;;;;;;;;4930637;29;20257;-64
2022/03/07 07:01:00;;;;;;;1.67;1.53;;;;;;;;;;4930310;29;20214;-65
2022/03/07 07:03:27;;;;;;;1.57;1.40;;;;;;;;;;4930289;29;20632;-65
2022/03/07 07:05:54;;;;;;;1.73;1.63;;;;;;;;;;4930356;29;20222;-64
2022/03/07 07:08:21;;;;;;;1.20;1.10;;;;;;;;;;4930478;29;20215;-64
2022/03/07 07:10:48;;;;;;;1.03;1.03;;;;;;;;;;4930353;29;20210;-65
2022/03/07 07:13:15;;;;;;;0.60;0.60;;;;;;;;;;4947509;29;20235;-64
2022/03/07 07:15:44;;;;;;;2.57;1.47;;;;;;;;;;4949153;29;20589;-65
2022/03/07 07:18:12;;;;;;;2.30;1.47;;;;;;;;;;4948868;29;20217;-65
2022/03/07 07:20:39;;;;;;;2.37;1.53;;;;;;;;;;4949456;29;20310;-65
2022/03/07 07:23:06;;;;;;;1.53;1.47;;;;;;;;;;4953923;28;20241;-65
2022/03/07 07:25:33;;;;;;;0.10;0.10;;;;;;;;;;4957346;28;20225;-65
2022/03/07 07:28:00;;;;;;;2.30;1.37;;;;;;;;;;4954817;28;20771;-65
2022/03/07 07:30:27;;;;;;;1.50;1.10;;;;;;;;;;4958311;28;20257;-65
2022/03/07 07:32:56;;;;;;;1.10;1.00;;;;;;;;;;4957378;28;20233;-65
2022/03/07 07:35:23;;;;;;;0.90;0.90;;;;;;;;;;4956953;28;20229;-65
2022/03/07 07:37:50;;;;;;;3.43;0.83;;;;;;;;;;4957753;28;20207;-65
2022/03/07 07:40:17;;;;;;;2.10;0.97;;;;;;;;;;4957720;28;20215;-65
2022/03/07 07:42:44;;;;;;;0.67;0.63;;;;;;;;;;4952580;28;20214;-65
2022/03/07 07:45:12;;;;;;;1.27;1.27;;;;;;;;;;4958280;28;20241;-65
2022/03/07 07:47:39;;;;;;;0.30;0.30;;;;;;;;;;4959293;28;20202;-65
2022/03/07 07:50:09;;;;;;;0.70;0.70;;;;;;;;;;4958807;28;20253;-65
2022/03/07 07:52:36;;;;;;;1.13;1.00;;;;;;;;;;4960981;28;20309;-65
2022/03/07 07:55:04;;;;;;;0.73;0.50;;;;;;;;;;4961767;28;20308;-65
2022/03/07 07:57:31;;;;;;;2.00;1.23;;;;;;;;;;4959796;28;20714;-65
2022/03/07 07:59:58;;;;;;;0.60;0.47;;;;;;;;;;4961234;28;20266;-65
2022/03/07 08:02:25;;;;;;;0.50;0.50;;;;;;;;;;4959547;28;20212;-64
2022/03/07 08:04:52;;;;;;;1.60;1.50;;;;;;;;;;4961624;28;20547;-65
2022/03/07 08:07:21;;;;;;;1.80;0.93;;;;;;;;;;4960641;28;20259;-65
2022/03/07 08:09:48;;;;;;;2.33;1.40;;;;;;;;;;4961444;28;20275;-64
2022/03/07 08:12:17;;;;;;;0.33;0.33;;;;;;;;;;4960149;28;20901;-64
2022/03/07 08:14:44;;;;;;;3.60;0.83;;;;;;;;;;4960328;28;20214;-64
2022/03/07 08:17:12;;;;;;;0.70;0.70;;;;;;;;;;4959066;28;20206;-64
2022/03/07 08:19:39;;;;;;;0.83;0.77;;;;;;;;;;4959657;28;20616;-64
2022/03/07 08:22:06;;;;;;;1.03;0.50;;;;;;;;;;4958495;28;20249;-64
2022/03/07 08:24:34;;;;;;;0.50;0.50;;;;;;;;;;4960505;28;20246;-65
2022/03/07 08:27:01;;;;;;;0.70;0.70;;;;;;;;;;4957740;28;20223;-65
2022/03/07 08:29:28;;;;;;;0.63;0.63;;;;;;;;;;4961066;28;20198;-65
2022/03/07 08:31:55;;;;;;;0.77;0.77;;;;;;;;;;4959991;28;20717;-65
2022/03/07 08:34:22;;;;;;;0.70;0.70;;;;;;;;;;4958923;28;20287;-65
2022/03/07 08:36:49;;;;;;;2.33;1.33;;;;;;;;;;4953722;28;20207;-64
2022/03/07 08:39:17;;;;;;;1.93;1.60;;;;;;;;;;4960149;28;20214;-65
2022/03/07 08:41:45;;;;;;;1.90;1.63;;;;;;;;;;4958986;28;20266;-63
2022/03/07 08:44:12;;;;;;;0.90;0.90;;;;;;;;;;4957234;28;20211;-64
2022/03/07 08:46:39;;;;;;;1.60;0.40;;;;;;;;;;4958938;28;20214;-63
2022/03/07 08:49:07;;;;;;;2.50;0.97;;;;;;;;;;4955502;28;20305;-64
2022/03/07 08:51:34;;;;;;;1.40;1.30;;;;;;;;;;4960002;28;20207;-63
2022/03/07 08:54:01;;;;;;;0.93;0.93;;;;;;;;;;4959557;28;20231;-64
2022/03/07 08:56:28;;;;;;;0.40;0.40;;;;;;;;;;4959684;28;20202;-64
2022/03/07 08:58:56;;;;;;;0.93;0.93;;;;;;;;;;4958533;28;20215;-66
2022/03/07 09:01:24;;;;;;;0.30;0.30;;;;;;;;;;4960694;28;20276;-64
2022/03/07 09:03:51;;;;;;;0.67;0.67;;;;;;;;;;4955927;28;20233;-66
2022/03/07 09:06:18;;;;;;;0.73;0.67;;;;;;;;;;4959804;28;20574;-65
2022/03/07 09:08:45;;;;;;;2.53;1.40;;;;;;;;;;4956052;28;20208;-65
2022/03/07 09:11:12;;;;;;;1.27;0.67;;;;;;;;;;4960371;28;20212;-65
2022/03/07 09:13:39;;;;;;;1.00;1.00;;;;;;;;;;4959936;28;20234;-65
2022/03/07 09:16:07;;;;;;;1.10;1.10;;;;;;;;;;4958703;28;20209;-65
2022/03/07 09:18:34;;;;;;;0.70;0.30;;;;;;;;;;4955501;28;20208;-65
2022/03/07 09:21:02;;;;;;;0.60;0.60;;;;;;;;;;4957859;28;20227;-66
2022/03/07 09:23:37;;;;;;;0.70;0.70;;;;;;;;;;4955796;28;20237;-65
2022/03/07 09:26:04;;;;;;;0.73;0.70;;;;;;;;;;4957261;28;20233;-64
2022/03/07 09:28:31;;;;;;;0.73;0.73;;;;;;;;;;4958501;28;20268;-64
2022/03/07 09:30:58;;;;;;;1.20;1.13;;;;;;;;;;4958951;28;20570;-64
2022/03/07 09:33:27;;;;;;;0.93;0.80;;;;;;;;;;4959884;28;20706;-64
2022/03/07 09:35:54;;;;;;;0.60;0.60;;;;;;;;;;4944854;28;20621;-66
2022/03/07 09:38:21;;;;;;;2.23;0.73;;;;;;;;;;4940079;29;20220;-64
2022/03/07 09:40:48;;;;;;;0.77;0.77;;;;;;;;;;4942720;29;20225;-64
2022/03/07 09:43:15;;;;;;;1.13;1.13;;;;;;;;;;4945738;29;20285;-65
2022/03/07 09:45:43;;;;;;;1.47;1.47;;;;;;;;;;4945905;29;20221;-64
2022/03/07 09:48:11;;;;;;;1.40;0.60;;;;;;;;;;4945699;29;20676;-64
2022/03/07 09:50:39;;;;;;;1.10;0.87;;;;;;;;;;4934590;28;20222;-64
2022/03/07 09:53:07;;;;;;;1.27;1.27;;;;;;;;;;4928009;28;20851;-64
2022/03/07 09:55:34;;;;;;;3.87;1.80;;;;;;;;;;4945029;29;20273;-64
2022/03/07 09:58:01;;;;;;;0.63;0.63;;;;;;;;;;4945474;29;20218;-64
2022/03/07 10:00:28;;;;;;;1.13;1.13;;;;;;;;;;4942663;28;20227;-64
2022/03/07 10:02:56;;;;;;;1.10;1.10;;;;;;;;;;4945895;29;20276;-65
2022/03/07 10:05:27;;;;;;;0.67;0.67;;;;;;;;;;4946000;29;20222;-65
2022/03/07 10:07:55;;;;;;;1.93;1.83;;;;;;;;;;4945276;29;20219;-65
2022/03/07 10:10:23;;;;;;;0.70;0.57;;;;;;;;;;4929252;29;20210;-65
2022/03/07 10:12:52;;;;;;;1.87;1.77;;;;;;;;;;4943141;29;20218;-67
2022/03/07 10:15:19;;;;;;;1.80;1.70;;;;;;;;;;4945661;29;20534;-65
2022/03/07 10:17:50;;;;;;;0.47;0.47;;;;;;;;;;4929979;29;20705;-65
2022/03/07 10:20:19;;;;;;;1.73;1.73;;;;;;;;;;4938710;29;20215;-65
2022/03/07 10:22:47;;;;;;;1.50;1.23;;;;;;;;;;4945998;28;20613;-65
2022/03/07 10:25:16;;;;;;;0.80;0.80;;;;;;;;;;4945765;29;20351;-65
2022/03/07 10:27:44;;;;;;;1.20;1.10;;;;;;;;;;4945713;29;20247;-65
2022/03/07 10:30:12;;;;;;;1.40;1.30;;;;;;;;;;4941871;29;20219;-65
2022/03/07 10:32:40;;;;;;;1.63;1.53;;;;;;;;;;4945878;29;20313;-65
2022/03/07 10:35:07;;;;;;;0.87;0.87;;;;;;;;;;4946364;29;20250;-65
2022/03/07 10:37:35;;;;;;;1.23;1.23;;;;;;;;;;4939981;28;20219;-65
2022/03/07 10:40:03;;;;;;;1.50;1.27;;;;;;;;;;4945051;29;20218;-65
2022/03/07 10:42:31;;;;;;;1.53;1.00;;;;;;;;;;4940209;29;20208;-65
2022/03/07 10:45:05;;;;;;;1.27;0.97;;;;;;;;;;4926205;29;20754;-65
2022/03/07 10:47:32;;;;;;;1.87;1.30;;;;;;;;;;4932286;28;21014;-65
2022/03/07 10:50:01;;;;;;;1.90;1.40;;;;;;;;;;4941257;28;20736;-65
2022/03/07 10:52:36;;;;;;;1.37;1.30;;;;;;;;;;4933359;29;20373;-65
2022/03/07 10:55:04;;;;;;;0.77;0.77;;;;;;;;;;4926330;29;20698;-66
2022/03/07 10:57:35;;;;;;;1.70;1.60;;;;;;;;;;4925945;29;20216;-65
2022/03/07 11:00:07;;;;;;;0.97;0.97;;;;;;;;;;4933768;29;20893;-65
2022/03/07 11:02:39;;;;;;;0.80;0.80;;;;;;;;;;4926205;29;20691;-65
2022/03/07 11:05:07;;;;;;;0.57;0.57;;;;;;;;;;4926652;29;20737;-65
2022/03/07 11:07:34;;;;;;;0.53;0.53;;;;;;;;;;4926202;29;20353;-65
2022/03/07 11:10:01;;;;;;;0.80;0.80;;;;;;;;;;4927679;29;20215;-65
2022/03/07 11:12:29;;;;;;;4.07;1.63;;;;;;;;;;4941989;28;20215;-66
2022/03/07 11:14:58;;;;;;;1.40;1.30;;;;;;;;;;4943040;28;20290;-65
2022/03/07 11:17:26;;;;;;;1.60;1.37;;;;;;;;;;4945414;29;20215;-65
2022/03/07 11:19:54;;;;;;;1.57;1.47;;;;;;;;;;4945595;29;20294;-65
2022/03/07 11:22:22;;;;;;;1.60;1.33;;;;;;;;;;4936196;29;20334;-65
2022/03/07 11:24:49;;;;;;;1.17;1.17;;;;;;;;;;4948866;29;20235;-64
2022/03/07 11:27:17;;;;;;;1.10;1.10;;;;;;;;;;4948502;29;20664;-64
2022/03/07 11:29:45;;;;;;;2.00;1.00;;;;;;;;;;4948400;28;20252;-64
2022/03/07 11:32:15;;;;;;;0.90;0.77;;;;;;;;;;4944047;28;20222;-65
2022/03/07 11:34:52;;;;;;;1.00;0.90;;;;;;;;;;4948340;29;20235;-65
2022/03/07 11:37:20;;;;;;;1.63;1.53;;;;;;;;;;4936417;28;20225;-65
2022/03/07 11:39:47;;;;;;;0.83;0.83;;;;;;;;;;4938162;29;20717;-65
2022/03/07 11:42:16;;;;;;;0.70;0.70;;;;;;;;;;4936381;29;20667;-65
2022/03/07 11:44:43;;;;;;;1.20;1.20;;;;;;;;;;4928739;29;20257;-65
2022/03/07 11:47:11;;;;;;;1.73;1.63;;;;;;;;;;4928934;29;20639;-65
2022/03/07 11:49:40;;;;;;;0.87;0.87;;;;;;;;;;4933976;29;20211;-65
2022/03/07 11:52:09;;;;;;;0.90;0.90;;;;;;;;;;4937298;29;20219;-65
2022/03/07 11:54:36;;;;;;;1.27;1.17;;;;;;;;;;4928843;29;20242;-65
2022/03/07 11:57:10;;;;;;;0.90;0.90;;;;;;;;;;4928936;29;20215;-65
2022/03/07 11:59:37;;;;;;;2.10;1.77;;;;;;;;;;4928929;29;20229;-65
2022/03/07 12:02:05;;;;;;;0.60;0.60;;;;;;;;;;4929939;29;20279;-65
2022/03/07 12:04:38;;;;;;;0.90;0.90;;;;;;;;;;4946711;29;20479;-65
2022/03/07 12:07:07;;;;;;;3.03;1.53;;;;;;;;;;4947949;29;20274;-65
2022/03/07 12:09:35;;;;;;;3.53;0.67;;;;;;;;;;4948092;29;20218;-65
2022/03/07 12:12:03;;;;;;;1.77;1.70;;;;;;;;;;4948027;29;20718;-65
2022/03/07 12:14:31;;;;;;;2.10;0.87;;;;;;;;;;4932356;29;20867;-65
2022/03/07 12:17:00;;;;;;;1.70;1.60;;;;;;;;;;4928894;29;20216;-65
2022/03/07 12:19:28;;;;;;;0.87;0.87;;;;;;;;;;4937185;29;20214;-64
2022/03/07 12:21:56;;;;;;;0.93;0.93;;;;;;;;;;4947335;29;20213;-65
2022/03/07 12:24:24;;;;;;;1.80;1.70;;;;;;;;;;4935983;29;20213;-64
2022/03/07 12:26:53;;;;;;;1.70;1.60;;;;;;;;;;4928782;29;20321;-64
2022/03/07 12:29:20;;;;;;;1.47;1.37;;;;;;;;;;4932179;29;20208;-65
2022/03/07 12:31:51;;;;;;;1.30;1.13;;;;;;;;;;4947106;28;20437;-65
2022/03/07 12:34:22;;;;;;;0.70;0.70;;;;;;;;;;4937673;29;20657;-65
2022/03/07 12:37:00;;;;;;;1.43;1.43;;;;;;;;;;4934283;29;20461;-64
2022/03/07 12:39:28;;;;;;;0.50;0.47;;;;;;;;;;4942138;29;20211;-65
2022/03/07 12:41:59;;;;;;;0.77;0.67;;;;;;;;;;4927565;29;20599;-65
2022/03/07 12:44:26;;;;;;;0.40;0.40;;;;;;;;;;4934570;29;20622;-65
2022/03/07 12:46:53;;;;;;;1.20;1.20;;;;;;;;;;4947152;29;20227;-65
2022/03/07 12:49:20;;;;;;;0.93;0.93;;;;;;;;;;4946948;29;20215;-65
2022/03/07 12:51:47;;;;;;;0.77;0.43;;;;;;;;;;4946601;29;20278;-64
2022/03/07 12:54:15;;;;;;;1.47;1.40;;;;;;;;;;4942727;29;20559;-65
2022/03/07 12:56:44;;;;;;;1.70;1.07;;;;;;;;;;4933869;29;20223;-65
2022/03/07 12:59:11;;;;;;;0.80;0.80;;;;;;;;;;4927859;29;20239;-64
2022/03/07 13:01:39;;;;;;;2.13;1.93;;;;;;;;;;4927152;29;20224;-64
2022/03/07 13:04:16;;;;;;;2.13;1.90;;;;;;;;;;4932007;29;20229;-65
2022/03/07 13:06:47;;;;;;;1.67;0.73;;;;;;;;;;4945932;29;20331;-63
2022/03/07 13:09:14;;;;;;;2.53;1.07;;;;;;;;;;4946167;29;20640;-63
2022/03/07 13:11:42;;;;;;;0.43;0.43;;;;;;;;;;4939919;29;20233;-63
2022/03/07 13:14:18;;;;;;;0.93;0.93;;;;;;;;;;4928986;29;20757;-63
2022/03/07 13:16:46;;;;;;;1.47;1.37;;;;;;;;;;4939430;29;20218;-64
2022/03/07 13:19:13;;;;;;;0.33;0.23;;;;;;;;;;4926842;29;20215;-64
2022/03/07 13:21:41;;;;;;;0.60;0.60;;;;;;;;;;4926297;29;20216;-64
2022/03/07 13:24:09;;;;;;;1.87;0.93;;;;;;;;;;4927434;29;20215;-64
2022/03/07 13:26:36;;;;;;;1.80;1.47;;;;;;;;;;4929927;29;20236;-63
2022/03/07 13:29:05;;;;;;;0.90;0.90;;;;;;;;;;4945829;29;20253;-64
2022/03/07 13:31:43;;;;;;;2.17;1.97;;;;;;;;;;4946010;29;20379;-64
2022/03/07 13:34:10;;;;;;;3.13;1.83;;;;;;;;;;4945940;29;20231;-64
2022/03/07 13:36:41;;;;;;;0.93;0.93;;;;;;;;;;4933610;29;20219;-64
2022/03/07 13:39:17;;;;;;;0.80;0.80;;;;;;;;;;4946029;29;20214;-64
2022/03/07 13:41:48;;;;;;;1.97;1.87;;;;;;;;;;4945388;29;20754;-64
2022/03/07 13:44:15;;;;;;;0.90;0.90;;;;;;;;;;4945400;28;20215;-64
2022/03/07 13:46:53;;;;;;;1.10;1.10;;;;;;;;;;4930700;29;21101;-64
2022/03/07 13:49:20;;;;;;;2.97;2.40;;;;;;;;;;4943754;28;20750;-64
2022/03/07 13:51:47;;;;;;;1.87;1.10;;;;;;;;;;4945693;29;20215;-64
2022/03/07 13:54:14;;;;;;;0.90;0.90;;;;;;;;;;4946004;29;20233;-64
2022/03/07 13:56:41;;;;;;;1.93;1.60;;;;;;;;;;4928164;29;20213;-63
2022/03/07 13:59:12;;;;;;;2.03;1.93;;;;;;;;;;4927121;29;20231;-63
2022/03/07 14:01:39;;;;;;;1.10;0.97;;;;;;;;;;4926620;29;20210;-64
2022/03/07 14:04:17;;;;;;;1.43;1.00;;;;;;;;;;4926605;29;20684;-64
2022/03/07 14:06:45;;;;;;;2.50;1.30;;;;;;;;;;4941493;29;20222;-64
2022/03/07 14:09:12;;;;;;;1.63;1.53;;;;;;;;;;4945474;29;20234;-64
2022/03/07 14:11:40;;;;;;;3.27;1.40;;;;;;;;;;4945380;29;20225;-64
2022/03/07 14:14:17;;;;;;;1.67;1.13;;;;;;;;;;4945471;29;20217;-64
2022/03/07 14:16:44;;;;;;;0.57;0.57;;;;;;;;;;4932340;28;20585;-64
2022/03/07 14:19:11;;;;;;;0.90;0.90;;;;;;;;;;4941976;29;20268;-64
2022/03/07 14:21:40;;;;;;;1.33;1.23;;;;;;;;;;4945481;29;20698;-64
2022/03/07 14:24:08;;;;;;;0.50;0.50;;;;;;;;;;4945311;29;20222;-64
2022/03/07 14:26:35;;;;;;;1.03;1.03;;;;;;;;;;4943756;29;20335;-64
2022/03/07 14:29:04;;;;;;;1.40;1.20;;;;;;;;;;4944366;29;20250;-62
2022/03/07 14:31:31;;;;;;;1.10;1.10;;;;;;;;;;4944861;29;20323;-64
2022/03/07 14:33:58;;;;;;;1.87;0.80;;;;;;;;;;4928441;29;20413;-63
2022/03/07 14:36:25;;;;;;;0.40;0.40;;;;;;;;;;4927070;29;20565;-64
2022/03/07 14:38:56;;;;;;;0.60;0.60;;;;;;;;;;4926220;29;20216;-64
2022/03/07 14:41:23;;;;;;;2.13;1.87;;;;;;;;;;4926538;29;20218;-64
2022/03/07 14:43:50;;;;;;;1.73;1.60;;;;;;;;;;4926310;29;20279;-65
2022/03/07 14:46:17;;;;;;;0.90;0.90;;;;;;;;;;4929920;29;20539;-64